Hauptseite
METAR-TAF:

METAR-TAF

Flughäfen :

Flughafen Rundu

Rundu, Namibia

Breite: 17-57-20S, Länge: 019-43-25E, Höhe: 1106 m

Beobachtung

Neuester Wetterbericht von vor 19 Stunden und 23 Minuten, um 13:00 UTC
Wind 3 kt aus Nord/Nordwest
Temperatur 24°C
Luftfeuchtigkeit 74%
Luftdruck 1018 hPa

METAR: FYRU 081300Z AUTO 34003KT //// // ////// 24/19 Q1018

Zeit: 10:23 (08:23 UTC)


TAF: fehlend

Wetterbeobachtungen und Prognosen von mehr als 4000 Flughäfen (METAR und TAF Bericht).

Die verfügbaren Stationen werden durch gelbe und rote Markierungen auf der Karte dargestellt.

Führen Sie die Maus auf sie, um den Namen der Station zu sehen.

Darauf klicken, um die Beobachtung von Wetterbeobachtungen und Prognosen zu sehen.

Um die Karte zu ändern : klicken Sie auf den grünen Tasten mit einem schwarzen Kreuz Zum Vergrößern, auf den grünen Button mit einem Gedankenstrich zu verkleinern, oder auf die grünen Pfeile für benachbarte Karten.


METAR-TAF: